Time;durP1;ratioP1;P1;durP2;ratioP2;P2;SDS_P1;SDS_P2;PMS_P1;PMS_P2;Temp;Humidity;BMP_temperature;BMP_pressure;BME280_temperature;BME280_humidity;BME280_pressure;Samples;Min_cycle;Max_cycle;Signal;HPM_P1;HPM_P2
2023/05/18 00:01:57;;;;;;;0.40;0.40;;;;;;;13.23;100.00;97179.13;5076223;28;20020;-80
2023/05/18 00:04:22;;;;;;;0.52;0.28;;;;;;;13.27;100.00;97177.94;5076233;28;20062;-81
2023/05/18 00:07:02;;;;;;;0.10;0.10;;;;;;;13.28;100.00;97181.47;5059357;28;20027;-80
2023/05/18 00:09:28;;;;;;;1.38;0.73;;;;;;;13.28;100.00;97176.97;5071447;28;20480;-81
2023/05/18 00:11:54;;;;;;;0.13;0.10;;;;;;;13.18;100.00;97172.44;5059793;28;20032;-81
2023/05/18 00:14:20;;;;;;;0.15;0.15;;;;;;;13.22;100.00;97174.75;5075868;28;20127;-79
2023/05/18 00:16:46;;;;;;;0.10;0.10;;;;;;;13.22;100.00;97174.75;5059261;28;20032;-80
2023/05/18 00:19:14;;;;;;;0.17;0.17;;;;;;;13.20;100.00;97175.84;5075801;28;20412;-80
2023/05/18 00:21:45;;;;;;;0.20;0.20;;;;;;;13.14;100.00;97174.50;5094015;28;20475;-80
2023/05/18 00:24:11;;;;;;;0.10;0.10;;;;;;;13.22;100.00;97177.44;5058816;28;20028;-80
2023/05/18 00:26:38;;;;;;;0.00;0.00;;;;;;;13.24;100.00;97172.81;5059264;28;20621;-80
2023/05/18 00:29:04;;;;;;;0.10;0.10;;;;;;;13.23;100.00;97170.22;5058732;28;20036;-80
2023/05/18 00:31:29;;;;;;;0.00;0.00;;;;;;;13.21;100.00;97173.03;5093876;28;20035;-81
2023/05/18 00:33:55;;;;;;;0.00;0.00;;;;;;;13.27;100.00;97177.94;5075926;28;20027;-80
2023/05/18 00:36:20;;;;;;;0.10;0.10;;;;;;;13.25;100.00;97169.16;5058697;28;20129;-80
2023/05/18 00:38:46;;;;;;;0.10;0.10;;;;;;;13.24;100.00;97162.06;5075750;28;20048;-81
2023/05/18 00:41:11;;;;;;;0.00;0.00;;;;;;;13.24;100.00;97170.13;5058807;28;20023;-79
2023/05/18 00:43:40;;;;;;;0.00;0.00;;;;;;;13.27;100.00;97164.50;5093447;28;20077;-82
2023/05/18 00:46:05;;;;;;;0.65;0.20;;;;;;;13.26;100.00;97165.47;5075443;28;20089;-80
2023/05/18 00:48:31;;;;;;;0.00;0.00;;;;;;;13.26;100.00;97160.09;5075388;28;20032;-81
2023/05/18 00:50:56;;;;;;;0.05;0.05;;;;;;;13.31;100.00;97173.19;5075527;28;20487;-81
2023/05/18 00:53:22;;;;;;;0.15;0.15;;;;;;;13.25;100.00;97173.66;5075156;28;20027;-81
2023/05/18 00:55:48;;;;;;;0.35;0.30;;;;;;;13.28;100.00;97176.97;5058611;28;20016;-81
2023/05/18 00:58:13;;;;;;;0.10;0.10;;;;;;;13.28;100.00;97171.59;5058367;28;20020;-81
2023/05/18 01:00:39;;;;;;;0.00;0.00;;;;;;;13.16;100.00;97158.28;5075143;28;20055;-80
2023/05/18 01:03:08;;;;;;;0.50;0.17;;;;;;;13.14;100.00;97160.22;5058456;28;20060;-81
2023/05/18 01:05:34;;;;;;;0.00;0.00;;;;;;;13.15;100.00;97170.84;5075882;28;20030;-81
2023/05/18 01:08:01;;;;;;;0.00;0.00;;;;;;;13.23;100.00;97187.19;5058389;28;20032;-80
2023/05/18 01:10:28;;;;;;;0.08;0.08;;;;;;;13.20;100.00;97184.75;5058382;28;20028;-80
2023/05/18 01:13:01;;;;;;;0.00;0.00;;;;;;;13.29;100.00;97196.63;5074675;28;20052;-81
2023/05/18 01:15:37;;;;;;;0.08;0.08;;;;;;;13.26;100.00;97204.94;5057765;28;20192;-80
2023/05/18 01:18:20;;;;;;;0.00;0.00;;;;;;;13.29;100.00;97208.22;5058079;28;20026;-81
2023/05/18 01:20:58;;;;;;;0.30;0.30;;;;;;;13.22;100.00;97198.09;5068528;28;20028;-81
2023/05/18 01:23:43;;;;;;;0.57;0.38;;;;;;;13.31;100.00;97211.66;5074379;28;20403;-81
2023/05/18 01:26:14;;;;;;;0.15;0.15;;;;;;;13.27;100.00;97207.47;5074490;28;20024;-80
2023/05/18 01:28:40;;;;;;;0.55;0.20;;;;;;;13.24;100.00;97207.72;5092588;28;20030;-80
2023/05/18 01:31:07;;;;;;;1.02;0.55;;;;;;;13.26;100.00;97216.50;5074631;28;20024;-80
2023/05/18 01:33:32;;;;;;;0.00;0.00;;;;;;;13.28;100.00;97206.53;5092167;28;20544;-81
2023/05/18 01:35:58;;;;;;;0.40;0.38;;;;;;;13.29;100.00;97202.84;5073751;28;20106;-81
2023/05/18 01:38:25;;;;;;;0.17;0.05;;;;;;;13.21;100.00;97191.84;5092386;28;20111;-80
2023/05/18 01:41:05;;;;;;;0.45;0.40;;;;;;;13.30;100.00;97199.19;5074372;28;20032;-82
2023/05/18 01:43:34;;;;;;;0.10;0.10;;;;;;;13.34;100.00;97199.81;5074089;28;20399;-81
2023/05/18 01:46:18;;;;;;;0.75;0.43;;;;;;;13.30;100.00;97193.81;5092476;28;20031;-81
2023/05/18 01:48:48;;;;;;;0.55;0.50;;;;;;;13.21;100.00;97189.16;5057349;28;20400;-80
2023/05/18 01:51:16;;;;;;;0.35;0.20;;;;;;;13.23;100.00;97187.19;5057442;28;20115;-81
2023/05/18 01:53:50;;;;;;;0.00;0.00;;;;;;;13.28;100.00;97205.66;5074062;28;20039;-81
2023/05/18 01:56:16;;;;;;;0.52;0.15;;;;;;;13.28;100.00;97211.88;5074003;28;20458;-81
2023/05/18 01:58:43;;;;;;;0.30;0.30;;;;;;;13.31;100.00;97221.53;5056927;28;20028;-80
2023/05/18 02:01:08;;;;;;;0.22;0.22;;;;;;;13.32;100.00;97220.56;5074096;28;20460;-81
2023/05/18 02:03:34;;;;;;;0.20;0.20;;;;;;;13.39;100.00;97232.53;5073594;28;20036;-80
2023/05/18 02:06:00;;;;;;;0.10;0.10;;;;;;;13.33;100.00;97220.44;5057037;28;20026;-81
2023/05/18 02:08:25;;;;;;;0.75;0.52;;;;;;;13.38;100.00;97234.34;5056852;28;20432;-81
2023/05/18 02:10:51;;;;;;;0.85;0.43;;;;;;;13.35;100.00;97237.28;5073710;28;20145;-81
2023/05/18 02:13:16;;;;;;;0.73;0.50;;;;;;;13.39;100.00;97245.97;5056724;28;20138;-81
2023/05/18 02:15:43;;;;;;;0.52;0.30;;;;;;;13.34;100.00;97238.28;5073388;28;20062;-80
2023/05/18 02:18:08;;;;;;;0.10;0.10;;;;;;;13.38;100.00;97250.47;5073785;28;20020;-80
2023/05/18 02:20:36;;;;;;;0.32;0.32;;;;;;;13.36;100.00;97241.69;5056591;28;20097;-80
2023/05/18 02:23:01;;;;;;;0.10;0.10;;;;;;;13.35;100.00;97242.66;5074023;28;20043;-80
2023/05/18 02:25:27;;;;;;;0.32;0.25;;;;;;;13.37;100.00;97248.78;5073540;28;20036;-79
2023/05/18 02:27:52;;;;;;;0.35;0.35;;;;;;;13.36;100.00;97255.13;5073268;28;20032;-81
2023/05/18 02:30:18;;;;;;;0.20;0.20;;;;;;;13.34;100.00;97254.38;5073838;28;20110;-81
2023/05/18 02:32:45;;;;;;;0.28;0.28;;;;;;;13.37;100.00;97258.66;5073204;28;20514;-80
2023/05/18 02:35:11;;;;;;;0.80;0.60;;;;;;;13.41;100.00;97258.28;5091728;28;20085;-80
2023/05/18 02:37:41;;;;;;;0.30;0.30;;;;;;;13.39;100.00;97252.19;5056452;28;20040;-80
2023/05/18 02:40:12;;;;;;;0.20;0.20;;;;;;;13.40;100.00;97256.59;5057272;28;20047;-81
2023/05/18 02:42:37;;;;;;;0.52;0.47;;;;;;;13.26;100.00;97255.97;5056188;28;20063;-80
2023/05/18 02:45:03;;;;;;;0.22;0.22;;;;;;;13.25;100.00;97260.47;5073619;28;20063;-81
2023/05/18 02:47:29;;;;;;;0.57;0.57;;;;;;;13.35;100.00;97268.69;5056404;28;20105;-80
2023/05/18 02:49:55;;;;;;;0.40;0.35;;;;;;;13.25;100.00;97263.16;5092199;28;20059;-80
2023/05/18 02:52:20;;;;;;;0.60;0.55;;;;;;;13.25;100.00;97263.16;5073574;28;20095;-81
2023/05/18 02:54:46;;;;;;;0.30;0.30;;;;;;;13.28;100.00;97264.75;5056306;28;20035;-80
2023/05/18 02:57:12;;;;;;;0.20;0.20;;;;;;;13.26;100.00;97267.53;5056405;28;20065;-80
2023/05/18 02:59:38;;;;;;;0.90;0.63;;;;;;;13.30;100.00;97277.09;5073248;28;20468;-80
2023/05/18 03:02:04;;;;;;;2.05;1.05;;;;;;;13.30;100.00;97273.53;5091360;28;20024;-81
2023/05/18 03:04:30;;;;;;;0.35;0.20;;;;;;;13.34;100.00;97280.41;5073301;28;20407;-80
2023/05/18 03:06:57;;;;;;;1.40;1.02;;;;;;;13.29;100.00;97288.78;5056347;28;20031;-81
2023/05/18 03:09:23;;;;;;;0.65;0.63;;;;;;;13.34;100.00;97292.00;5073131;28;20024;-76
2023/05/18 03:11:49;;;;;;;1.05;0.82;;;;;;;13.33;100.00;97295.66;5091183;28;20420;-81
2023/05/18 03:14:14;;;;;;;1.13;0.90;;;;;;;13.34;100.00;97297.38;5073411;28;20040;-81
2023/05/18 03:16:40;;;;;;;0.47;0.32;;;;;;;13.28;100.00;97297.84;5056009;28;20032;-81
2023/05/18 03:19:06;;;;;;;0.77;0.63;;;;;;;13.33;100.00;97298.34;5056782;28;20407;-80
2023/05/18 03:21:34;;;;;;;0.30;0.30;;;;;;;13.39;100.00;97305.94;5055978;28;20407;-80
2023/05/18 03:24:01;;;;;;;1.17;0.98;;;;;;;13.39;100.00;97307.75;5056590;28;20066;-79
2023/05/18 03:26:29;;;;;;;0.40;0.40;;;;;;;13.38;100.00;97306.88;5073199;28;20028;-81
2023/05/18 03:28:55;;;;;;;0.35;0.35;;;;;;;13.43;100.00;97317.28;5056550;28;20036;-81
2023/05/18 03:31:21;;;;;;;0.30;0.30;;;;;;;13.46;100.00;97317.91;5073537;28;20158;-80
2023/05/18 03:33:46;;;;;;;1.95;1.10;;;;;;;13.41;100.00;97314.72;5073702;28;20522;-80
2023/05/18 03:36:12;;;;;;;0.95;0.77;;;;;;;13.44;100.00;97322.53;5056598;28;20532;-83
2023/05/18 03:38:37;;;;;;;3.20;0.98;;;;;;;13.38;100.00;97314.94;5056581;28;20024;-82
2023/05/18 03:41:03;;;;;;;2.97;0.77;;;;;;;13.39;100.00;97319.34;5090830;28;20479;-81
2023/05/18 03:43:31;;;;;;;0.90;0.85;;;;;;;13.31;100.00;97316.41;5072624;28;20031;-81
2023/05/18 03:45:57;;;;;;;2.20;0.47;;;;;;;13.35;100.00;97325.94;5072733;28;20164;-80
2023/05/18 03:48:23;;;;;;;1.83;0.50;;;;;;;13.37;100.00;97323.13;5055628;28;20028;-81
2023/05/18 03:50:48;;;;;;;0.30;0.30;;;;;;;13.41;100.00;97322.78;5072316;28;20024;-80
2023/05/18 03:53:17;;;;;;;0.73;0.55;;;;;;;13.44;100.00;97329.78;5090753;28;20089;-80
2023/05/18 03:55:44;;;;;;;1.05;0.80;;;;;;;13.30;100.00;97325.44;5072924;28;20472;-80
2023/05/18 03:58:09;;;;;;;0.30;0.30;;;;;;;13.38;100.00;97327.56;5073276;28;20369;-80
2023/05/18 04:00:35;;;;;;;0.70;0.70;;;;;;;13.41;100.00;97328.16;5094422;28;20082;-80
2023/05/18 04:03:02;;;;;;;0.70;0.70;;;;;;;13.43;100.00;97325.34;5076005;28;20063;-80
2023/05/18 04:05:27;;;;;;;2.13;0.70;;;;;;;13.46;100.00;97335.88;5059817;28;20036;-81
2023/05/18 04:07:56;;;;;;;0.52;0.52;;;;;;;13.41;100.00;97325.47;5075826;28;20024;-81
2023/05/18 04:10:43;;;;;;;1.55;0.30;;;;;;;13.46;100.00;97331.34;5076730;28;20063;-81
2023/05/18 04:13:08;;;;;;;1.27;0.63;;;;;;;13.51;100.00;97337.22;5066625;28;20071;-81
2023/05/18 04:15:35;;;;;;;0.25;0.25;;;;;;;13.41;100.00;97330.84;5053173;28;20024;-79
2023/05/18 04:18:00;;;;;;;0.63;0.55;;;;;;;13.38;100.00;97339.13;5052143;28;20025;-87
2023/05/18 04:20:28;;;;;;;0.63;0.57;;;;;;;13.41;100.00;97346.13;5050307;28;20021;-88
2023/05/18 04:22:54;;;;;;;0.88;0.85;;;;;;;13.43;100.00;97347.72;5049868;28;20029;-87
2023/05/18 04:25:20;;;;;;;0.45;0.45;;;;;;;13.50;100.00;97362.38;5033487;28;20029;-84
2023/05/18 04:27:45;;;;;;;0.52;0.52;;;;;;;13.46;100.00;97352.00;5049361;28;20024;-83
2023/05/18 04:30:12;;;;;;;0.20;0.20;;;;;;;13.50;100.00;97366.91;5034194;28;20029;-82
2023/05/18 04:32:41;;;;;;;1.30;0.28;;;;;;;13.54;100.00;97369.22;5052503;28;20043;-83
2023/05/18 04:35:07;;;;;;;0.30;0.30;;;;;;;13.49;100.00;97366.06;5035945;28;20543;-83
2023/05/18 04:37:33;;;;;;;0.52;0.52;;;;;;;13.51;100.00;97371.28;5036156;28;20769;-83
2023/05/18 04:40:01;;;;;;;2.05;1.45;;;;;;;13.34;100.00;97350.25;5055092;28;20054;-84
2023/05/18 04:42:27;;;;;;;1.02;0.75;;;;;;;13.29;100.00;97369.38;5053780;28;20025;-81
2023/05/18 04:44:53;;;;;;;5.78;2.90;;;;;;;13.32;100.00;97377.22;5052312;28;20071;-81
2023/05/18 04:47:22;;;;;;;2.47;1.55;;;;;;;13.27;100.00;97379.41;5053147;28;20392;-83
2023/05/18 04:49:51;;;;;;;7.03;4.55;;;;;;;13.35;100.00;97379.66;5036375;28;20378;-81
2023/05/18 04:52:20;;;;;;;2.08;1.10;;;;;;;13.39;100.00;97391.03;5052369;28;20486;-81
2023/05/18 04:54:46;;;;;;;3.63;0.90;;;;;;;13.42;100.00;97391.66;5053143;28;20032;-82
2023/05/18 04:57:12;;;;;;;1.08;0.77;;;;;;;13.44;100.00;97397.78;5036478;28;20405;-83
2023/05/18 04:59:40;;;;;;;3.38;1.90;;;;;;;13.32;100.00;97390.63;5053403;28;20029;-83
2023/05/18 05:02:05;;;;;;;7.40;2.08;;;;;;;13.41;100.00;97403.38;5036097;28;20564;-85
2023/05/18 05:04:31;;;;;;;1.92;1.75;;;;;;;13.39;100.00;97409.84;5053707;28;20036;-84
2023/05/18 05:06:56;;;;;;;2.97;1.50;;;;;;;13.42;100.00;97409.63;5037171;28;20024;-83
2023/05/18 05:09:22;;;;;;;1.50;0.95;;;;;;;13.46;100.00;97414.66;5050682;28;20477;-83
2023/05/18 05:11:47;;;;;;;7.00;1.45;;;;;;;13.38;100.00;97419.72;5036089;28;20170;-84
2023/05/18 05:14:13;;;;;;;2.85;1.52;;;;;;;13.39;100.00;97416.09;5055882;28;20542;-82
2023/05/18 05:16:38;;;;;;;2.50;2.03;;;;;;;13.47;100.00;97427.09;5076573;28;20028;-83
2023/05/18 05:19:04;;;;;;;4.13;2.63;;;;;;;13.47;100.00;97424.41;5058279;28;20053;-84
2023/05/18 05:21:30;;;;;;;1.30;1.23;;;;;;;13.50;100.00;97429.56;5058256;28;20028;-82
2023/05/18 05:23:56;;;;;;;0.82;0.80;;;;;;;13.53;100.00;97426.63;5058441;28;20356;-83
2023/05/18 05:26:21;;;;;;;4.60;1.75;;;;;;;13.60;100.00;97436.94;5058303;28;20028;-83
2023/05/18 05:28:47;;;;;;;1.02;0.98;;;;;;;13.58;100.00;97429.84;5074620;28;20027;-82
2023/05/18 05:31:31;;;;;;;6.82;3.40;;;;;;;13.63;100.00;97429.47;5074485;28;20429;-82
2023/05/18 05:33:56;;;;;;;3.35;2.47;;;;;;;13.65;100.00;97429.38;5074533;28;20123;-80
2023/05/18 05:36:22;;;;;;;3.03;1.85;;;;;;;13.51;100.00;97427.72;5074541;28;20028;-83
2023/05/18 05:38:48;;;;;;;2.88;1.73;;;;;;;13.48;100.00;97418.06;5092304;28;20020;-83
2023/05/18 05:41:13;;;;;;;1.85;1.55;;;;;;;13.47;100.00;97413.66;5057886;28;20024;-83
2023/05/18 05:43:39;;;;;;;0.90;0.88;;;;;;;13.45;100.00;97412.94;5057835;28;20475;-83
2023/05/18 05:46:05;;;;;;;1.42;1.25;;;;;;;13.45;100.00;97415.63;5074675;28;20409;-84
2023/05/18 05:48:30;;;;;;;1.27;1.17;;;;;;;13.49;100.00;97408.19;5075222;28;20028;-81
2023/05/18 05:50:56;;;;;;;4.75;1.15;;;;;;;13.48;100.00;97407.31;5058477;28;20031;-83
2023/05/18 05:53:22;;;;;;;1.10;1.00;;;;;;;13.46;100.00;97403.91;5058261;28;20532;-80
2023/05/18 05:55:47;;;;;;;2.70;1.42;;;;;;;13.52;100.00;97406.13;5074488;28;20110;-83
2023/05/18 05:58:13;;;;;;;1.05;0.75;;;;;;;13.60;100.00;97421.66;5092362;28;20110;-84
2023/05/18 06:00:38;;;;;;;4.65;1.88;;;;;;;13.65;100.00;97413.25;5057034;28;20472;-81
2023/05/18 06:03:04;;;;;;;1.65;1.27;;;;;;;13.69;100.00;97409.38;5074106;28;20139;-83
2023/05/18 06:05:30;;;;;;;1.90;1.40;;;;;;;13.58;100.00;97389.53;5057173;28;20038;-83
2023/05/18 06:07:56;;;;;;;1.42;1.00;;;;;;;13.73;100.00;97405.44;5057479;28;20028;-82
2023/05/18 06:10:21;;;;;;;3.53;1.15;;;;;;;13.61;100.00;97390.25;5074488;28;20027;-82
2023/05/18 06:12:48;;;;;;;1.20;1.10;;;;;;;13.57;100.00;97392.31;5073721;28;20578;-85
2023/05/18 06:15:13;;;;;;;2.17;1.70;;;;;;;13.64;100.00;97395.41;5057034;28;20102;-84
2023/05/18 06:17:39;;;;;;;2.20;1.48;;;;;;;13.66;100.00;97402.38;5073632;28;20544;-84
2023/05/18 06:20:08;;;;;;;3.05;2.60;;;;;;;13.76;100.00;97415.97;5056694;28;20035;-84
2023/05/18 06:22:33;;;;;;;1.33;1.05;;;;;;;13.72;100.00;97409.97;5057711;28;20028;-82
2023/05/18 06:24:59;;;;;;;2.05;1.30;;;;;;;13.74;100.00;97410.72;5073843;28;20466;-84
2023/05/18 06:27:24;;;;;;;2.03;1.73;;;;;;;13.76;100.00;97410.59;5073601;28;20031;-84
2023/05/18 06:29:51;;;;;;;2.00;1.73;;;;;;;13.66;100.00;97401.53;5073395;28;20066;-83
2023/05/18 06:32:17;;;;;;;10.60;1.77;;;;;;;13.62;100.00;97402.72;5074186;28;20031;-83
2023/05/18 06:34:44;;;;;;;1.15;1.05;;;;;;;13.62;100.00;97402.72;5056839;28;20020;-83
2023/05/18 06:37:10;;;;;;;1.27;1.15;;;;;;;13.61;100.00;97404.56;5056834;28;20027;-83
2023/05/18 06:39:36;;;;;;;1.30;1.20;;;;;;;13.67;100.00;97398.72;5073687;28;20023;-83
2023/05/18 06:42:02;;;;;;;3.33;2.30;;;;;;;13.64;100.00;97400.78;5056516;28;20028;-82
2023/05/18 06:44:27;;;;;;;2.20;1.52;;;;;;;13.67;100.00;97411.28;5073203;28;20074;-83
2023/05/18 06:46:53;;;;;;;7.00;1.92;;;;;;;13.58;100.00;97407.47;5073236;28;20031;-83
2023/05/18 06:49:18;;;;;;;3.35;1.67;;;;;;;13.63;100.00;97404.47;5091342;28;20158;-83
2023/05/18 06:51:44;;;;;;;2.20;1.67;;;;;;;13.67;100.00;97419.34;5056555;28;20031;-82
2023/05/18 06:54:10;;;;;;;1.98;1.75;;;;;;;13.67;100.00;97413.97;5056551;28;20032;-83
2023/05/18 06:56:35;;;;;;;2.97;2.55;;;;;;;13.63;100.00;97410.66;5073677;28;20141;-83
2023/05/18 06:59:01;;;;;;;3.47;1.75;;;;;;;13.74;100.00;97428.69;5056680;28;20024;-84
2023/05/18 07:01:26;;;;;;;5.80;1.77;;;;;;;13.76;100.00;97424.03;5073221;28;20404;-83
2023/05/18 07:03:52;;;;;;;10.48;2.53;;;;;;;13.84;100.00;97429.69;5074186;28;20028;-83
2023/05/18 07:06:17;;;;;;;3.42;1.90;;;;;;;13.88;100.00;97433.84;5056847;28;20043;-85
2023/05/18 07:08:43;;;;;;;3.15;2.10;;;;;;;13.99;100.00;97437.44;5057084;28;20106;-86
2023/05/18 07:11:09;;;;;;;5.50;2.70;;;;;;;14.06;100.00;97425.22;5058642;28;20054;-83
2023/05/18 07:13:34;;;;;;;4.60;3.45;;;;;;;14.06;100.00;97411.75;5071872;28;20607;-83
2023/05/18 07:16:00;;;;;;;2.80;2.30;;;;;;;14.21;100.00;97417.78;5054800;28;20135;-85
2023/05/18 07:18:25;;;;;;;3.55;2.50;;;;;;;14.29;100.00;97415.34;5039755;28;20025;-86
2023/05/18 07:20:51;;;;;;;2.17;1.48;;;;;;;14.35;100.00;97414.88;5052657;28;20459;-83
2023/05/18 07:23:16;;;;;;;4.57;1.80;;;;;;;14.39;100.00;97411.00;5052033;28;20029;-83
2023/05/18 07:25:42;;;;;;;1.38;1.23;;;;;;;14.47;100.00;97405.84;5050867;28;20025;-82
2023/05/18 07:28:07;;;;;;;7.65;2.25;;;;;;;14.55;100.00;97400.69;5038490;28;20041;-83
2023/05/18 07:30:33;;;;;;;9.60;1.83;;;;;;;14.49;100.00;97389.56;5057841;28;20117;-83
2023/05/18 07:32:59;;;;;;;2.90;1.52;;;;;;;14.61;100.00;97404.75;5037518;28;20029;-81
2023/05/18 07:35:25;;;;;;;4.43;2.28;;;;;;;14.65;100.00;97411.56;5057885;28;20493;-83
2023/05/18 07:37:52;;;;;;;1.60;1.23;;;;;;;14.73;100.00;97410.97;5059671;28;20055;-82
2023/05/18 07:40:18;;;;;;;1.00;0.73;;;;;;;14.89;100.00;97412.28;5062605;28;20031;-83
2023/05/18 07:42:44;;;;;;;4.40;1.85;;;;;;;14.88;100.00;97407.91;5043040;28;20056;-82
2023/05/18 07:45:10;;;;;;;5.53;1.63;;;;;;;15.06;100.00;97400.13;5042056;28;20368;-83
2023/05/18 07:47:35;;;;;;;2.13;1.27;;;;;;;15.06;100.00;97406.38;5058707;28;20178;-83
2023/05/18 07:50:01;;;;;;;5.90;2.13;;;;;;;15.27;100.00;97403.75;5057957;28;20059;-82
2023/05/18 07:52:27;;;;;;;2.70;1.65;;;;;;;15.47;100.00;97399.41;5043036;28;20045;-83
2023/05/18 07:54:55;;;;;;;6.95;2.17;;;;;;;15.59;100.00;97393.88;5058751;28;20020;-83
2023/05/18 07:57:21;;;;;;;4.72;2.13;;;;;;;15.77;100.00;97396.84;5052942;28;20029;-82
2023/05/18 07:59:46;;;;;;;2.58;1.30;;;;;;;15.76;100.00;97369.97;5058436;28;20514;-83
2023/05/18 08:02:12;;;;;;;2.55;1.13;;;;;;;15.92;100.00;97367.69;5061552;28;20025;-83
2023/05/18 08:04:38;;;;;;;6.85;1.80;;;;;;;15.82;100.00;97359.53;5062914;28;20036;-82
2023/05/18 08:07:03;;;;;;;3.50;1.33;;;;;;;15.98;100.00;97367.16;5041082;28;20476;-82
2023/05/18 08:09:29;;;;;;;1.48;1.13;;;;;;;15.91;100.00;97361.44;5062026;28;20044;-81
2023/05/18 08:11:56;;;;;;;1.35;1.25;;;;;;;16.11;100.00;97384.00;5057562;28;20029;-81
2023/05/18 08:14:22;;;;;;;4.15;1.98;;;;;;;16.14;100.00;97375.63;5062914;28;20116;-82
2023/05/18 08:16:47;;;;;;;4.43;1.80;;;;;;;16.20;100.00;97375.97;5070063;28;20411;-82
2023/05/18 08:19:13;;;;;;;3.63;1.75;;;;;;;16.29;100.00;97374.31;5083453;28;20449;-81
2023/05/18 08:21:39;;;;;;;1.75;1.20;;;;;;;16.46;100.00;97384.47;5083825;28;20036;-82
2023/05/18 08:24:39;;;;;;;2.65;1.45;;;;;;;16.09;100.00;97375.16;5065518;28;20027;-82
2023/05/18 08:27:07;;;;;;;5.45;1.58;;;;;;;15.80;100.00;97384.94;5085079;28;20088;-81
2023/05/18 08:29:32;;;;;;;0.70;0.70;;;;;;;15.75;100.00;97381.78;5087504;28;20028;-82
2023/05/18 08:31:58;;;;;;;5.57;1.08;;;;;;;15.82;100.00;97380.25;5087292;28;20035;-81
2023/05/18 08:34:24;;;;;;;2.55;1.00;;;;;;;16.19;100.00;97387.75;5087222;28;20024;-82
2023/05/18 08:36:51;;;;;;;1.10;0.93;;;;;;;16.54;100.00;97381.09;5066655;28;20028;-82
2023/05/18 08:39:16;;;;;;;17.13;2.10;;;;;;;16.59;100.00;97368.91;5066162;28;20087;-83
2023/05/18 08:41:54;;;;;;;1.55;1.25;;;;;;;16.64;100.00;97373.94;5083466;28;20052;-83
2023/05/18 08:44:22;;;;;;;1.13;1.02;;;;;;;16.67;100.00;97374.47;5092201;28;20085;-81
2023/05/18 08:46:50;;;;;;;0.73;0.73;;;;;;;16.82;100.00;97380.38;5065799;28;20028;-80
2023/05/18 08:49:17;;;;;;;0.50;0.50;;;;;;;16.99;100.00;97365.34;5078972;28;20115;-82
2023/05/18 08:51:45;;;;;;;1.92;1.42;;;;;;;17.33;100.00;97367.53;5077364;28;20031;-82
2023/05/18 08:54:10;;;;;;;3.47;1.27;;;;;;;17.51;100.00;97367.66;5059298;28;20123;-81
2023/05/18 08:56:37;;;;;;;1.70;1.50;;;;;;;17.76;100.00;97380.66;5058727;28;20059;-81
2023/05/18 08:59:06;;;;;;;1.48;1.08;;;;;;;18.09;100.00;97378.50;5075490;28;20495;-83
2023/05/18 09:01:32;;;;;;;1.98;1.30;;;;;;;18.35;100.00;97384.97;5076131;28;20028;-81
2023/05/18 09:03:59;;;;;;;1.13;1.02;;;;;;;18.42;100.00;97369.84;5059230;28;20072;-81
2023/05/18 09:06:25;;;;;;;1.40;1.05;;;;;;;18.62;100.00;97376.91;5085177;28;20035;-82
2023/05/18 09:08:52;;;;;;;1.55;1.23;;;;;;;18.83;100.00;97372.13;5075858;28;20416;-83
2023/05/18 09:11:18;;;;;;;3.47;2.80;;;;;;;18.84;100.00;97376.53;5076265;28;20024;-82
2023/05/18 09:13:43;;;;;;;1.00;0.70;;;;;;;18.53;100.00;97355.28;5064765;28;20045;-82
2023/05/18 09:16:09;;;;;;;1.35;1.23;;;;;;;18.77;100.00;97370.00;5039788;28;20041;-81
2023/05/18 09:18:34;;;;;;;0.80;0.40;;;;;;;19.02;100.00;97367.59;5038844;28;20135;-81
2023/05/18 09:21:00;;;;;;;0.80;0.80;;;;;;;18.87;100.00;97365.41;5052174;28;20412;-80
2023/05/18 09:23:26;;;;;;;1.27;0.85;;;;;;;18.83;100.00;97366.69;5035954;28;20029;-81
2023/05/18 09:25:51;;;;;;;1.25;0.85;;;;;;;18.60;100.00;97370.81;5035842;28;20103;-82
2023/05/18 09:28:32;;;;;;;0.57;0.47;;;;;;;18.55;100.00;97364.97;5051974;28;20079;-81
2023/05/18 09:30:57;;;;;;;1.50;1.40;;;;;;;18.69;100.00;97377.19;5051610;28;20465;-80
2023/05/18 09:33:23;;;;;;;0.88;0.70;;;;;;;18.49;100.00;97365.56;5037741;28;20032;-81
2023/05/18 09:35:50;;;;;;;3.92;0.98;;;;;;;18.53;100.00;97361.56;5035387;28;20029;-81
2023/05/18 09:38:20;;;;;;;1.65;0.77;;;;;;;18.54;100.00;97360.56;5051863;28;20495;-82
2023/05/18 09:40:47;;;;;;;1.92;1.42;;;;;;;18.06;100.00;97355.25;5051433;28;20456;-81
2023/05/18 09:43:13;;;;;;;1.27;0.60;;;;;;;17.98;100.00;97370.53;5051556;28;20021;-82
2023/05/18 09:45:44;;;;;;;1.48;0.63;;;;;;;18.25;100.00;97368.75;5051492;28;20052;-80
2023/05/18 09:48:10;;;;;;;2.15;1.30;;;;;;;18.56;100.00;97382.94;5034694;28;20033;-81
2023/05/18 09:50:36;;;;;;;1.65;0.90;;;;;;;18.69;100.00;97375.34;5051253;28;20031;-81
2023/05/18 09:53:12;;;;;;;2.90;1.00;;;;;;;18.72;100.00;97372.31;5050957;28;20028;-80
2023/05/18 09:55:47;;;;;;;0.73;0.73;;;;;;;18.66;100.00;97375.63;5051841;28;20063;-82
2023/05/18 09:58:13;;;;;;;1.20;0.88;;;;;;;18.77;100.00;97375.44;5050900;28;20028;-82
2023/05/18 10:00:44;;;;;;;2.00;0.98;;;;;;;18.64;100.00;97372.19;5051105;28;20485;-81
2023/05/18 10:03:23;;;;;;;0.68;0.60;;;;;;;18.74;100.00;97383.84;5050772;28;20484;-81
2023/05/18 10:05:49;;;;;;;0.85;0.82;;;;;;;18.54;100.00;97384.94;5034133;28;20473;-81
2023/05/18 10:08:15;;;;;;;0.77;0.60;;;;;;;18.15;100.00;97384.16;5051165;28;20029;-82
2023/05/18 10:10:46;;;;;;;0.55;0.45;;;;;;;18.03;100.00;97400.69;5050596;28;20032;-81
2023/05/18 10:13:19;;;;;;;2.75;1.75;;;;;;;17.83;100.00;97405.31;5043243;28;20048;-81
2023/05/18 10:15:51;;;;;;;10.25;6.30;;;;;;;17.58;100.00;97405.88;5073734;28;20023;-80
2023/05/18 10:18:23;;;;;;;1.90;1.80;;;;;;;17.51;100.00;97408.25;5073257;28;20024;-81
2023/05/18 10:20:51;;;;;;;1.02;0.93;;;;;;;17.34;100.00;97406.25;5056079;28;20293;-80
2023/05/18 10:23:22;;;;;;;6.00;2.03;;;;;;;17.22;100.00;97416.34;5090913;28;20092;-81
2023/05/18 10:25:49;;;;;;;1.10;0.95;;;;;;;17.16;100.00;97403.38;5056277;28;20024;-81
2023/05/18 10:28:23;;;;;;;3.50;2.25;;;;;;;17.27;100.00;97416.75;5073059;28;20605;-81
2023/05/18 10:30:49;;;;;;;1.83;1.23;;;;;;;17.39;100.00;97395.00;5073366;28;20032;-81
2023/05/18 10:33:15;;;;;;;2.90;2.13;;;;;;;17.71;100.00;97407.31;5073298;28;20039;-80
2023/05/18 10:35:41;;;;;;;1.38;1.27;;;;;;;18.02;100.00;97408.00;5072674;28;20032;-81
2023/05/18 10:38:07;;;;;;;2.30;1.25;;;;;;;18.16;100.00;97406.69;5055957;28;20031;-81
2023/05/18 10:40:33;;;;;;;1.05;0.95;;;;;;;18.33;100.00;97409.47;5072616;28;20031;-80
2023/05/18 10:43:01;;;;;;;0.95;0.90;;;;;;;18.33;100.00;97411.34;5057150;28;20028;-82
2023/05/18 10:45:27;;;;;;;0.47;0.47;;;;;;;18.33;100.00;97414.91;5090687;28;20107;-81
2023/05/18 10:47:54;;;;;;;3.63;2.08;;;;;;;18.33;100.00;97414.06;5072834;28;20024;-80
2023/05/18 10:50:22;;;;;;;1.20;1.10;;;;;;;18.42;100.00;97405.06;5056004;28;20059;-81
2023/05/18 10:52:50;;;;;;;3.20;1.00;;;;;;;18.51;100.00;97396.09;5072654;28;20089;-81
2023/05/18 10:55:16;;;;;;;1.08;0.93;;;;;;;18.58;100.00;97412.59;5072593;28;20491;-80
2023/05/18 10:57:47;;;;;;;0.40;0.40;;;;;;;18.77;100.00;97412.50;5055766;28;20057;-80
2023/05/18 11:00:13;;;;;;;0.98;0.95;;;;;;;18.78;100.00;97415.09;5055886;28;20114;-80
2023/05/18 11:02:42;;;;;;;0.65;0.52;;;;;;;18.73;100.00;97417.41;5072511;28;20028;-80
2023/05/18 11:05:09;;;;;;;1.00;0.90;;;;;;;18.84;100.00;97435.31;5071876;28;20035;-78
2023/05/18 11:07:35;;;;;;;0.77;0.77;;;;;;;18.58;100.00;97435.09;5054560;28;20543;-82
2023/05/18 11:10:02;;;;;;;2.10;1.23;;;;;;;18.51;100.00;97434.00;5069188;28;20476;-81
2023/05/18 11:12:31;;;;;;;5.65;2.08;;;;;;;18.16;100.00;97444.56;5007071;28;1294170;-80
2023/05/18 11:14:57;;;;;;;1.02;0.85;;;;;;;17.65;100.00;97445.75;5070586;28;20047;-83
2023/05/18 11:17:28;;;;;;;3.83;2.17;;;;;;;17.41;100.00;97450.63;5088407;28;20449;-82
2023/05/18 11:20:10;;;;;;;0.43;0.43;;;;;;;17.40;100.00;97448.09;5053238;28;20502;-83
2023/05/18 11:22:47;;;;;;;1.13;1.10;;;;;;;17.16;100.00;97459.28;5082737;28;20028;-83
2023/05/18 11:25:27;;;;;;;1.00;0.80;;;;;;;16.70;100.00;97452.53;5070172;28;20047;-82